sensor_id;sensor_type;location;lat;lon;timestamp;P1;P2;P0
82817;PMS5003;72572;46.824;-71.222;2023-09-30T00:00:29;41.8;34.35;20
82817;PMS5003;72572;46.824;-71.222;2023-09-30T00:02:54;36.6;33.5;17.7
82817;PMS5003;72572;46.824;-71.222;2023-09-30T00:05:20;34.22;32.28;19.56
82817;PMS5003;72572;46.824;-71.222;2023-09-30T00:07:44;37.74;32.74;17.68
82817;PMS5003;72572;46.824;-71.222;2023-09-30T00:10:11;51.95;43.1;24.65
82817;PMS5003;72572;46.824;-71.222;2023-09-30T00:12:37;50.76;42.57;24.19
82817;PMS5003;72572;46.824;-71.222;2023-09-30T00:15:05;43.22;36.33;21.5
82817;PMS5003;72572;46.824;-71.222;2023-09-30T00:17:29;46.17;37.56;22.67
82817;PMS5003;72572;46.824;-71.222;2023-09-30T00:19:54;52.9;40.1;22.62
82817;PMS5003;72572;46.824;-71.222;2023-09-30T00:22:18;41.5;35.5;21.44
82817;PMS5003;72572;46.824;-71.222;2023-09-30T00:24:43;45.56;38;23
82817;PMS5003;72572;46.824;-71.222;2023-09-30T00:27:11;53.63;40.95;23.32
82817;PMS5003;72572;46.824;-71.222;2023-09-30T00:29:36;54.55;42.7;25.1
82817;PMS5003;72572;46.824;-71.222;2023-09-30T00:32:03;54.4;43.45;26.1
82817;PMS5003;72572;46.824;-71.222;2023-09-30T00:34:26;80.3;63;34.1
82817;PMS5003;72572;46.824;-71.222;2023-09-30T00:36:53;143.6;122.5;60.25
82817;PMS5003;72572;46.824;-71.222;2023-09-30T00:39:16;78.21;64.21;35.16
82817;PMS5003;72572;46.824;-71.222;2023-09-30T00:41:41;61.78;48.22;29.06
82817;PMS5003;72572;46.824;-71.222;2023-09-30T00:44:08;60.58;47.05;28.53
82817;PMS5003;72572;46.824;-71.222;2023-09-30T00:46:34;61.16;48.26;29.53
82817;PMS5003;72572;46.824;-71.222;2023-09-30T00:48:59;67.28;51.44;31.11
82817;PMS5003;72572;46.824;-71.222;2023-09-30T00:51:26;62.21;48.89;29.79
82817;PMS5003;72572;46.824;-71.222;2023-09-30T00:53:53;61.5;46;28.85
82817;PMS5003;72572;46.824;-71.222;2023-09-30T00:56:15;60.95;47.68;28
82817;PMS5003;72572;46.824;-71.222;2023-09-30T00:58:39;63.94;50.56;30.56
82817;PMS5003;72572;46.824;-71.222;2023-09-30T01:01:03;71.3;54.35;34.5
82817;PMS5003;72572;46.824;-71.222;2023-09-30T01:03:32;60.85;48.1;28.85
82817;PMS5003;72572;46.824;-71.222;2023-09-30T01:05:56;61.35;48.7;29.6
82817;PMS5003;72572;46.824;-71.222;2023-09-30T01:08:23;59.4;48.85;29.65
82817;PMS5003;72572;46.824;-71.222;2023-09-30T01:10:49;60.38;48.52;29.52
82817;PMS5003;72572;46.824;-71.222;2023-09-30T01:13:16;61.74;49;29.42
82817;PMS5003;72572;46.824;-71.222;2023-09-30T01:15:39;61.58;48.32;28.53
82817;PMS5003;72572;46.824;-71.222;2023-09-30T01:18:06;64.26;50.11;30.74
82817;PMS5003;72572;46.824;-71.222;2023-09-30T01:20:31;61.62;48.86;30.1
82817;PMS5003;72572;46.824;-71.222;2023-09-30T01:22:57;61.11;47.63;28.32
82817;PMS5003;72572;46.824;-71.222;2023-09-30T01:25:22;62.29;48.57;29.81
82817;PMS5003;72572;46.824;-71.222;2023-09-30T01:27:48;62.06;47.61;29.28
82817;PMS5003;72572;46.824;-71.222;2023-09-30T01:30:14;64.74;49.74;30.89
82817;PMS5003;72572;46.824;-71.222;2023-09-30T01:32:40;68.2;53;32
82817;PMS5003;72572;46.824;-71.222;2023-09-30T01:35:06;65.55;51.8;31.55
82817;PMS5003;72572;46.824;-71.222;2023-09-30T01:37:31;67.6;53.15;32.5
82817;PMS5003;72572;46.824;-71.222;2023-09-30T01:39:57;71.43;55.14;32.62
82817;PMS5003;72572;46.824;-71.222;2023-09-30T01:42:21;69.53;52.79;32.26
82817;PMS5003;72572;46.824;-71.222;2023-09-30T01:44:50;71.21;54.58;32.79
82817;PMS5003;72572;46.824;-71.222;2023-09-30T01:47:15;67.68;53;33.05
82817;PMS5003;72572;46.824;-71.222;2023-09-30T01:49:37;67.19;53;33.67
82817;PMS5003;72572;46.824;-71.222;2023-09-30T01:52:03;73.3;56.8;35.6
82817;PMS5003;72572;46.824;-71.222;2023-09-30T01:54:30;73.37;56.47;33.79
82817;PMS5003;72572;46.824;-71.222;2023-09-30T01:56:54;76.89;62.37;36.79
82817;PMS5003;72572;46.824;-71.222;2023-09-30T01:59:21;73.95;59.62;37.38
82817;PMS5003;72572;46.824;-71.222;2023-09-30T02:01:46;80.84;61.42;37.68
82817;PMS5003;72572;46.824;-71.222;2023-09-30T02:04:10;95.35;82.25;50.3
82817;PMS5003;72572;46.824;-71.222;2023-09-30T02:06:36;80.3;62.95;37.55
82817;PMS5003;72572;46.824;-71.222;2023-09-30T02:09:01;78.57;63.1;40.05
82817;PMS5003;72572;46.824;-71.222;2023-09-30T02:11:29;83.76;67.19;39.9
82817;PMS5003;72572;46.824;-71.222;2023-09-30T02:13:52;79.95;63.37;36.53
82817;PMS5003;72572;46.824;-71.222;2023-09-30T02:16:17;80.22;60.89;36.11
82817;PMS5003;72572;46.824;-71.222;2023-09-30T02:18:45;76.06;57.11;34.56
82817;PMS5003;72572;46.824;-71.222;2023-09-30T02:21:09;76.32;57.89;35.95
82817;PMS5003;72572;46.824;-71.222;2023-09-30T02:23:34;71.95;55.42;34.95
82817;PMS5003;72572;46.824;-71.222;2023-09-30T02:25:58;73.05;55.3;33.45
82817;PMS5003;72572;46.824;-71.222;2023-09-30T02:28:25;63.27;50.55;31.68
82817;PMS5003;72572;46.824;-71.222;2023-09-30T02:30:49;70.11;55.05;33.74
82817;PMS5003;72572;46.824;-71.222;2023-09-30T02:33:15;73.61;57.72;35
82817;PMS5003;72572;46.824;-71.222;2023-09-30T02:35:44;79.19;60.14;37.52
82817;PMS5003;72572;46.824;-71.222;2023-09-30T02:38:07;77.29;63.05;37.57
82817;PMS5003;72572;46.824;-71.222;2023-09-30T02:40:30;80.4;59.55;37
82817;PMS5003;72572;46.824;-71.222;2023-09-30T02:42:56;77.65;61.6;36.95
82817;PMS5003;72572;46.824;-71.222;2023-09-30T02:45:22;82.05;60.57;38.1
82817;PMS5003;72572;46.824;-71.222;2023-09-30T02:47:49;79.55;61.15;36.7
82817;PMS5003;72572;46.824;-71.222;2023-09-30T02:50:12;77.24;59.76;37
82817;PMS5003;72572;46.824;-71.222;2023-09-30T02:52:37;80.9;62.45;37.25
82817;PMS5003;72572;46.824;-71.222;2023-09-30T02:55:06;76.35;59.85;35.3
82817;PMS5003;72572;46.824;-71.222;2023-09-30T02:57:29;74.52;57.76;36.05
82817;PMS5003;72572;46.824;-71.222;2023-09-30T02:59:54;76.67;62.1;36.29
82817;PMS5003;72572;46.824;-71.222;2023-09-30T03:02:19;77;61.26;36.74
82817;PMS5003;72572;46.824;-71.222;2023-09-30T03:04:46;79.67;60.05;36.86
82817;PMS5003;72572;46.824;-71.222;2023-09-30T03:07:12;78.74;61.47;37.47
82817;PMS5003;72572;46.824;-71.222;2023-09-30T03:09:36;83.9;67.57;38.1
82817;PMS5003;72572;46.824;-71.222;2023-09-30T03:12:02;75.05;59.05;36.6
82817;PMS5003;72572;46.824;-71.222;2023-09-30T03:14:25;75.9;59.25;35.9
82817;PMS5003;72572;46.824;-71.222;2023-09-30T03:16:51;73.33;57.38;36.38
82817;PMS5003;72572;46.824;-71.222;2023-09-30T03:19:20;76.79;59.26;36
82817;PMS5003;72572;46.824;-71.222;2023-09-30T03:21:44;79.05;60.43;35.48
82817;PMS5003;72572;46.824;-71.222;2023-09-30T03:24:09;77.9;59.9;37.75
82817;PMS5003;72572;46.824;-71.222;2023-09-30T03:26:34;78.7;60.2;36.2
82817;PMS5003;72572;46.824;-71.222;2023-09-30T03:28:58;73.65;58;37.25
82817;PMS5003;72572;46.824;-71.222;2023-09-30T03:31:23;73.79;57.84;35.42
82817;PMS5003;72572;46.824;-71.222;2023-09-30T03:33:49;76.4;60.05;36.1
82817;PMS5003;72572;46.824;-71.222;2023-09-30T03:36:15;76.62;58.1;36.19
82817;PMS5003;72572;46.824;-71.222;2023-09-30T03:38:41;77.11;60.22;36.17
82817;PMS5003;72572;46.824;-71.222;2023-09-30T03:41:09;71.7;56.9;34.35
82817;PMS5003;72572;46.824;-71.222;2023-09-30T03:43:31;70.1;55.86;35
82817;PMS5003;72572;46.824;-71.222;2023-09-30T03:45:57;75.26;58.05;35.79
82817;PMS5003;72572;46.824;-71.222;2023-09-30T03:48:22;70.05;55.67;35.38
82817;PMS5003;72572;46.824;-71.222;2023-09-30T03:50:48;88.2;79.2;43.55
82817;PMS5003;72572;46.824;-71.222;2023-09-30T03:53:15;91.41;80.27;46.36
82817;PMS5003;72572;46.824;-71.222;2023-09-30T03:55:39;78.6;64.05;36.9
82817;PMS5003;72572;46.824;-71.222;2023-09-30T03:58:04;75.67;57.72;35.61
82817;PMS5003;72572;46.824;-71.222;2023-09-30T04:00:29;66.33;52.1;31.9
82817;PMS5003;72572;46.824;-71.222;2023-09-30T04:02:58;71.53;55.53;33.68
82817;PMS5003;72572;46.824;-71.222;2023-09-30T04:05:20;76.53;58.68;35.37
82817;PMS5003;72572;46.824;-71.222;2023-09-30T04:07:45;78.1;59.7;36.35
82817;PMS5003;72572;46.824;-71.222;2023-09-30T04:10:10;73.1;55.65;35
82817;PMS5003;72572;46.824;-71.222;2023-09-30T04:12:36;70.95;55.76;33.57
82817;PMS5003;72572;46.824;-71.222;2023-09-30T04:15:05;74.89;58.67;35.83
82817;PMS5003;72572;46.824;-71.222;2023-09-30T04:17:27;71.3;55.25;34.85
82817;PMS5003;72572;46.824;-71.222;2023-09-30T04:19:52;73.16;56.68;34.89
82817;PMS5003;72572;46.824;-71.222;2023-09-30T04:22:16;71;55.42;33.63
82817;PMS5003;72572;46.824;-71.222;2023-09-30T04:24:42;68.3;53.8;33.85
82817;PMS5003;72572;46.824;-71.222;2023-09-30T04:27:08;69.7;53.75;32.95
82817;PMS5003;72572;46.824;-71.222;2023-09-30T04:29:34;72.61;55.39;34.72
82817;PMS5003;72572;46.824;-71.222;2023-09-30T04:31:59;72;54.2;32.85
82817;PMS5003;72572;46.824;-71.222;2023-09-30T04:34:25;70.3;53.55;33.05
82817;PMS5003;72572;46.824;-71.222;2023-09-30T04:36:50;70.85;54.8;33.8
82817;PMS5003;72572;46.824;-71.222;2023-09-30T04:39:15;68.26;52.84;31.95
82817;PMS5003;72572;46.824;-71.222;2023-09-30T04:41:41;69.05;53.79;32.68
82817;PMS5003;72572;46.824;-71.222;2023-09-30T04:44:07;70.32;54;33.16
82817;PMS5003;72572;46.824;-71.222;2023-09-30T04:46:33;70.63;54.68;32.95
82817;PMS5003;72572;46.824;-71.222;2023-09-30T04:48:56;69.95;54.63;33.63
82817;PMS5003;72572;46.824;-71.222;2023-09-30T04:51:21;72.83;55.28;33.61
82817;PMS5003;72572;46.824;-71.222;2023-09-30T04:53:49;66.85;53.15;32.25
82817;PMS5003;72572;46.824;-71.222;2023-09-30T04:56:12;72.2;55.2;33.15
82817;PMS5003;72572;46.824;-71.222;2023-09-30T04:58:37;72.17;54.83;33.22
82817;PMS5003;72572;46.824;-71.222;2023-09-30T05:01:05;66.76;52.38;32.19
82817;PMS5003;72572;46.824;-71.222;2023-09-30T05:03:28;68.15;53.8;32.75
82817;PMS5003;72572;46.824;-71.222;2023-09-30T05:05:54;67.28;52.22;31.72
82817;PMS5003;72572;46.824;-71.222;2023-09-30T05:08:20;68.32;51.42;31
82817;PMS5003;72572;46.824;-71.222;2023-09-30T05:10:44;66.05;52.6;30.35
82817;PMS5003;72572;46.824;-71.222;2023-09-30T05:13:10;64.19;50.1;31.24
82817;PMS5003;72572;46.824;-71.222;2023-09-30T05:15:36;69.39;51.89;31.61
82817;PMS5003;72572;46.824;-71.222;2023-09-30T05:18:00;64.57;50.9;31.9
82817;PMS5003;72572;46.824;-71.222;2023-09-30T05:20:28;66.26;48.63;30.37
82817;PMS5003;72572;46.824;-71.222;2023-09-30T05:22:51;62.1;48.85;29.85
82817;PMS5003;72572;46.824;-71.222;2023-09-30T05:25:17;63.8;50.2;31.45
82817;PMS5003;72572;46.824;-71.222;2023-09-30T05:27:42;60.67;49.43;29.52
82817;PMS5003;72572;46.824;-71.222;2023-09-30T05:30:08;63.25;49.6;30.05
82817;PMS5003;72572;46.824;-71.222;2023-09-30T05:32:32;64.16;48.37;29.32
82817;PMS5003;72572;46.824;-71.222;2023-09-30T05:35:01;59;47.8;29.4
82817;PMS5003;72572;46.824;-71.222;2023-09-30T05:37:24;65.22;50.28;29.5
82817;PMS5003;72572;46.824;-71.222;2023-09-30T05:39:50;60.62;48.1;29.48
82817;PMS5003;72572;46.824;-71.222;2023-09-30T05:42:16;57.16;45.68;27.42
82817;PMS5003;72572;46.824;-71.222;2023-09-30T05:44:41;59.35;45.2;28
82817;PMS5003;72572;46.824;-71.222;2023-09-30T05:47:04;63.21;48.53;29
82817;PMS5003;72572;46.824;-71.222;2023-09-30T05:49:48;52.62;42.62;26.1
82817;PMS5003;72572;46.824;-71.222;2023-09-30T05:52:12;58.3;45.4;27
82817;PMS5003;72572;46.824;-71.222;2023-09-30T05:54:37;59.26;46.84;28.16
82817;PMS5003;72572;46.824;-71.222;2023-09-30T05:57:03;58.9;46;27.1
82817;PMS5003;72572;46.824;-71.222;2023-09-30T05:59:27;63.16;49.32;27.37
82817;PMS5003;72572;46.824;-71.222;2023-09-30T06:01:53;55.79;44.37;26.53
82817;PMS5003;72572;46.824;-71.222;2023-09-30T06:04:18;61.6;47.95;27.3
82817;PMS5003;72572;46.824;-71.222;2023-09-30T06:06:44;57.2;44.3;27.1
82817;PMS5003;72572;46.824;-71.222;2023-09-30T06:09:09;47.71;39.71;24.14
82817;PMS5003;72572;46.824;-71.222;2023-09-30T06:11:35;50.65;41.8;24.6
82817;PMS5003;72572;46.824;-71.222;2023-09-30T06:14:00;52.5;43;26.45
82817;PMS5003;72572;46.824;-71.222;2023-09-30T06:16:25;54.63;43;25.32
82817;PMS5003;72572;46.824;-71.222;2023-09-30T06:18:51;55;42.19;24.67
82817;PMS5003;72572;46.824;-71.222;2023-09-30T06:21:16;57.95;44.8;26.3
82817;PMS5003;72572;46.824;-71.222;2023-09-30T06:23:42;47.59;38.64;24.5
82817;PMS5003;72572;46.824;-71.222;2023-09-30T06:26:06;54.37;42.47;24.63
82817;PMS5003;72572;46.824;-71.222;2023-09-30T06:28:34;49.05;39.86;23.52
82817;PMS5003;72572;46.824;-71.222;2023-09-30T06:30:57;57;42;24.47
82817;PMS5003;72572;46.824;-71.222;2023-09-30T06:33:22;56.26;42.95;24.05
82817;PMS5003;72572;46.824;-71.222;2023-09-30T06:35:51;52.21;42.21;24.79
82817;PMS5003;72572;46.824;-71.222;2023-09-30T06:38:14;49.1;40.1;22.7
82817;PMS5003;72572;46.824;-71.222;2023-09-30T06:40:41;55.77;41.73;24.5
82817;PMS5003;72572;46.824;-71.222;2023-09-30T06:43:07;48.62;41.19;24
82817;PMS5003;72572;46.824;-71.222;2023-09-30T06:45:32;49.52;39.05;23.33
82817;PMS5003;72572;46.824;-71.222;2023-09-30T06:47:59;53.43;42.67;24.38
82817;PMS5003;72572;46.824;-71.222;2023-09-30T06:50:23;57.8;45;26.35
82817;PMS5003;72572;46.824;-71.222;2023-09-30T06:52:50;52.76;43.05;24.52
82817;PMS5003;72572;46.824;-71.222;2023-09-30T06:55:15;57.89;46.47;26.11
82817;PMS5003;72572;46.824;-71.222;2023-09-30T06:57:59;53.32;44.23;25.55
82817;PMS5003;72572;46.824;-71.222;2023-09-30T07:00:25;55.95;43.52;26.29
82817;PMS5003;72572;46.824;-71.222;2023-09-30T07:02:52;52;40.42;24.68
82817;PMS5003;72572;46.824;-71.222;2023-09-30T07:05:15;52.24;41.86;24.24
82817;PMS5003;72572;46.824;-71.222;2023-09-30T07:07:41;57.8;43.45;25.55
82817;PMS5003;72572;46.824;-71.222;2023-09-30T07:10:08;55.95;42.75;25.2
82817;PMS5003;72572;46.824;-71.222;2023-09-30T07:12:32;52.43;43.19;25.86
82817;PMS5003;72572;46.824;-71.222;2023-09-30T07:14:58;61.84;46.26;25.32
82817;PMS5003;72572;46.824;-71.222;2023-09-30T07:17:22;61.4;47.5;26.55
82817;PMS5003;72572;46.824;-71.222;2023-09-30T07:19:50;57.63;45.26;25.32
82817;PMS5003;72572;46.824;-71.222;2023-09-30T07:22:14;61.05;48.3;27.75
82817;PMS5003;72572;46.824;-71.222;2023-09-30T07:24:37;62.39;47.28;26.94
82817;PMS5003;72572;46.824;-71.222;2023-09-30T07:27:05;56.05;46.45;26.3
82817;PMS5003;72572;46.824;-71.222;2023-09-30T07:29:30;54.11;43.58;24.21
82817;PMS5003;72572;46.824;-71.222;2023-09-30T07:31:54;54.24;42.76;25.1
82817;PMS5003;72572;46.824;-71.222;2023-09-30T07:34:21;58.45;43.65;25.5
82817;PMS5003;72572;46.824;-71.222;2023-09-30T07:36:46;56.05;43.32;23.79
82817;PMS5003;72572;46.824;-71.222;2023-09-30T07:39:10;51.89;39.74;21.68
82817;PMS5003;72572;46.824;-71.222;2023-09-30T07:41:37;48.55;39.6;22.2
82817;PMS5003;72572;46.824;-71.222;2023-09-30T07:44:03;53.68;42.84;25.58
82817;PMS5003;72572;46.824;-71.222;2023-09-30T07:46:28;55;42.16;23
82817;PMS5003;72572;46.824;-71.222;2023-09-30T07:48:53;41.18;36.18;21.09
82817;PMS5003;72572;46.824;-71.222;2023-09-30T07:51:18;52.4;41.55;22.85
82817;PMS5003;72572;46.824;-71.222;2023-09-30T07:53:43;43.84;37.05;22.53
82817;PMS5003;72572;46.824;-71.222;2023-09-30T07:56:08;47.63;38.84;21.68
82817;PMS5003;72572;46.824;-71.222;2023-09-30T07:58:35;52.19;41.86;24.1
82817;PMS5003;72572;46.824;-71.222;2023-09-30T08:00:58;46.52;37.05;20.95
82817;PMS5003;72572;46.824;-71.222;2023-09-30T08:03:24;38.67;36.24;19.95
82817;PMS5003;72572;46.824;-71.222;2023-09-30T08:05:51;45;37.85;20.7
82817;PMS5003;72572;46.824;-71.222;2023-09-30T08:08:16;41.67;37.1;21.67
82817;PMS5003;72572;46.824;-71.222;2023-09-30T08:10:42;35.68;33.26;18.05
82817;PMS5003;72572;46.824;-71.222;2023-09-30T08:13:05;45.7;33.45;18.35
82817;PMS5003;72572;46.824;-71.222;2023-09-30T08:15:31;41.26;35.16;19.79
82817;PMS5003;72572;46.824;-71.222;2023-09-30T08:17:55;43.35;34.3;17.45
82817;PMS5003;72572;46.824;-71.222;2023-09-30T08:20:21;38.85;35.5;18.75
82817;PMS5003;72572;46.824;-71.222;2023-09-30T08:22:46;42.2;34.95;18.1
82817;PMS5003;72572;46.824;-71.222;2023-09-30T08:25:13;42.2;34.2;17.35
82817;PMS5003;72572;46.824;-71.222;2023-09-30T08:27:37;41.05;34.45;17.95
82817;PMS5003;72572;46.824;-71.222;2023-09-30T08:30:05;40.45;34.4;19.45
82817;PMS5003;72572;46.824;-71.222;2023-09-30T08:32:31;38;34.95;19.52
82817;PMS5003;72572;46.824;-71.222;2023-09-30T08:34:56;36.67;33.43;17.67
82817;PMS5003;72572;46.824;-71.222;2023-09-30T08:37:19;42.16;35;18.84
82817;PMS5003;72572;46.824;-71.222;2023-09-30T08:39:47;41.86;34.71;19.38
82817;PMS5003;72572;46.824;-71.222;2023-09-30T08:42:12;40.5;32.3;18.8
82817;PMS5003;72572;46.824;-71.222;2023-09-30T08:44:36;39.79;33.26;17.74
82817;PMS5003;72572;46.824;-71.222;2023-09-30T08:47:03;39.5;34.4;18.9
82817;PMS5003;72572;46.824;-71.222;2023-09-30T08:49:26;36.15;32.65;17.5
82817;PMS5003;72572;46.824;-71.222;2023-09-30T08:51:53;39.47;34.37;18.68
82817;PMS5003;72572;46.824;-71.222;2023-09-30T08:54:17;44.55;36.2;18.5
82817;PMS5003;72572;46.824;-71.222;2023-09-30T08:56:43;38.95;33.4;18.35
82817;PMS5003;72572;46.824;-71.222;2023-09-30T08:59:09;42.35;35.55;19.95
82817;PMS5003;72572;46.824;-71.222;2023-09-30T09:15:42;37.9;32.9;18.75
82817;PMS5003;72572;46.824;-71.222;2023-09-30T09:16:24;45.95;32.38;18.67
82817;PMS5003;72572;46.824;-71.222;2023-09-30T09:16:47;36.71;31.81;15.81
82817;PMS5003;72572;46.824;-71.222;2023-09-30T09:17:10;43.55;35.9;20.45
82817;PMS5003;72572;46.824;-71.222;2023-09-30T09:17:20;42.1;33.43;16.67
82817;PMS5003;72572;46.824;-71.222;2023-09-30T09:17:44;41.76;35;19
82817;PMS5003;72572;46.824;-71.222;2023-09-30T09:18:07;36.86;31.62;17.48
82817;PMS5003;72572;46.824;-71.222;2023-09-30T09:20:34;41.05;35.2;18.9
82817;PMS5003;72572;46.824;-71.222;2023-09-30T09:22:56;40.8;33.3;17.95
82817;PMS5003;72572;46.824;-71.222;2023-09-30T09:25:24;41.85;31.4;17.15
82817;PMS5003;72572;46.824;-71.222;2023-09-30T09:27:49;44.24;34.48;19.1
82817;PMS5003;72572;46.824;-71.222;2023-09-30T09:30:14;38.95;32.16;17.84
82817;PMS5003;72572;46.824;-71.222;2023-09-30T09:32:50;37.76;31.38;16.62
82817;PMS5003;72572;46.824;-71.222;2023-09-30T09:35:04;40.6;33.6;16.4
82817;PMS5003;72572;46.824;-71.222;2023-09-30T09:37:30;34.5;32.9;16.2
82817;PMS5003;72572;46.824;-71.222;2023-09-30T09:39:55;38.68;34.47;19.21
82817;PMS5003;72572;46.824;-71.222;2023-09-30T09:42:25;40.5;34.85;18.35
82817;PMS5003;72572;46.824;-71.222;2023-09-30T09:44:46;42.2;35.8;17.45
82817;PMS5003;72572;46.824;-71.222;2023-09-30T09:47:13;34.1;32.1;16.52
82817;PMS5003;72572;46.824;-71.222;2023-09-30T09:49:37;37.4;33.2;16.05
82817;PMS5003;72572;46.824;-71.222;2023-09-30T09:52:03;43.85;34.05;18.6
82817;PMS5003;72572;46.824;-71.222;2023-09-30T09:54:28;38.94;34.72;18.89
82817;PMS5003;72572;46.824;-71.222;2023-09-30T09:56:54;35.29;33.05;17.52
82817;PMS5003;72572;46.824;-71.222;2023-09-30T09:59:18;37.11;30.84;16.53
82817;PMS5003;72572;46.824;-71.222;2023-09-30T10:01:45;46.52;37.19;18.67
82817;PMS5003;72572;46.824;-71.222;2023-09-30T10:04:09;39.9;33.15;15.45
82817;PMS5003;72572;46.824;-71.222;2023-09-30T10:06:34;43.25;33.25;17
82817;PMS5003;72572;46.824;-71.222;2023-09-30T10:08:59;42.15;32.6;15.9
82817;PMS5003;72572;46.824;-71.222;2023-09-30T10:11:25;35.15;30.75;16.9
82817;PMS5003;72572;46.824;-71.222;2023-09-30T10:14:34;38.25;32.15;16.95
82817;PMS5003;72572;46.824;-71.222;2023-09-30T10:16:48;36.48;32.43;17.24
82817;PMS5003;72572;46.824;-71.222;2023-09-30T10:19:02;48.95;36.8;19.85
82817;PMS5003;72572;46.824;-71.222;2023-09-30T10:21:09;46.55;37.95;19.65
82817;PMS5003;72572;46.824;-71.222;2023-09-30T10:23:35;44.05;34.7;18.6
82817;PMS5003;72572;46.824;-71.222;2023-09-30T10:26:13;40.42;33.63;18.26
82817;PMS5003;72572;46.824;-71.222;2023-09-30T10:28:32;42.4;34.1;16.85
82817;PMS5003;72572;46.824;-71.222;2023-09-30T10:31:20;33.95;31.5;18.4
82817;PMS5003;72572;46.824;-71.222;2023-09-30T10:33:15;44.65;35.1;18.25
82817;PMS5003;72572;46.824;-71.222;2023-09-30T10:35:43;41.35;34.65;18.2
82817;PMS5003;72572;46.824;-71.222;2023-09-30T10:38:38;47.5;36.25;18.65
82817;PMS5003;72572;46.824;-71.222;2023-09-30T10:40:32;34.45;32.15;18.25
82817;PMS5003;72572;46.824;-71.222;2023-09-30T10:43:06;47.4;36.8;17.55
82817;PMS5003;72572;46.824;-71.222;2023-09-30T10:45:51;40.42;33.47;17.79
82817;PMS5003;72572;46.824;-71.222;2023-09-30T10:47:45;44.68;37;19.42
82817;PMS5003;72572;46.824;-71.222;2023-09-30T10:50:49;47.25;38;19.8
82817;PMS5003;72572;46.824;-71.222;2023-09-30T10:52:36;37.14;33.09;17.91
82817;PMS5003;72572;46.824;-71.222;2023-09-30T10:55:02;44.67;37.24;19.81
82817;PMS5003;72572;46.824;-71.222;2023-09-30T10:57:27;42.68;35.26;19.53
82817;PMS5003;72572;46.824;-71.222;2023-09-30T11:00:06;41.2;36.8;20.45
82817;PMS5003;72572;46.824;-71.222;2023-09-30T11:02:18;46;37.05;19.8
82817;PMS5003;72572;46.824;-71.222;2023-09-30T11:04:45;51.8;40.7;19.95
82817;PMS5003;72572;46.824;-71.222;2023-09-30T11:07:09;52.2;38.8;20.15
82817;PMS5003;72572;46.824;-71.222;2023-09-30T11:09:34;47.45;39.82;22.55
82817;PMS5003;72572;46.824;-71.222;2023-09-30T11:12:00;55.05;39.75;22.2
82817;PMS5003;72572;46.824;-71.222;2023-09-30T11:14:26;55;38.05;20.3
82817;PMS5003;72572;46.824;-71.222;2023-09-30T11:16:52;49.37;39.42;22.16
82817;PMS5003;72572;46.824;-71.222;2023-09-30T11:19:16;47.11;37.79;19.74
82817;PMS5003;72572;46.824;-71.222;2023-09-30T11:21:41;46.35;39.2;21.65
82817;PMS5003;72572;46.824;-71.222;2023-09-30T11:24:06;43.62;36.95;18.43
82817;PMS5003;72572;46.824;-71.222;2023-09-30T11:26:31;40.8;36.75;22.35
82817;PMS5003;72572;46.824;-71.222;2023-09-30T11:29:04;45.1;36.33;18.1
82817;PMS5003;72572;46.824;-71.222;2023-09-30T11:31:23;39.18;34.59;19.36
82817;PMS5003;72572;46.824;-71.222;2023-09-30T11:33:51;47.8;38.5;20.25
82817;PMS5003;72572;46.824;-71.222;2023-09-30T11:36:13;47.2;37.9;19.85
82817;PMS5003;72572;46.824;-71.222;2023-09-30T11:38:43;42.05;35.33;18.67
82817;PMS5003;72572;46.824;-71.222;2023-09-30T11:41:04;40.71;36.76;20.19
82817;PMS5003;72572;46.824;-71.222;2023-09-30T11:43:29;43.33;36.67;19.86
82817;PMS5003;72572;46.824;-71.222;2023-09-30T11:46:11;43.37;36.58;19.42
82817;PMS5003;72572;46.824;-71.222;2023-09-30T11:48:23;45.2;37.15;21.35
82817;PMS5003;72572;46.824;-71.222;2023-09-30T11:50:47;48.55;36.5;20.25
82817;PMS5003;72572;46.824;-71.222;2023-09-30T11:53:15;45;37.1;18.33
82817;PMS5003;72572;46.824;-71.222;2023-09-30T11:55:38;38.15;34.2;19.95
82817;PMS5003;72572;46.824;-71.222;2023-09-30T11:58:03;52.95;41.5;24.4
82817;PMS5003;72572;46.824;-71.222;2023-09-30T12:00:29;49.86;40.1;22.86
82817;PMS5003;72572;46.824;-71.222;2023-09-30T12:02:52;47.63;36.95;20.79
82817;PMS5003;72572;46.824;-71.222;2023-09-30T12:05:18;42.57;36.81;19.33
82817;PMS5003;72572;46.824;-71.222;2023-09-30T12:07:44;39.19;34.14;17.9
82817;PMS5003;72572;46.824;-71.222;2023-09-30T12:10:09;39.58;35.79;19.32
82817;PMS5003;72572;46.824;-71.222;2023-09-30T12:12:34;41.05;35.81;19.95
82817;PMS5003;72572;46.824;-71.222;2023-09-30T12:15:00;40.45;34.3;19.55
82817;PMS5003;72572;46.824;-71.222;2023-09-30T12:17:27;35.58;32.58;14.95
82817;PMS5003;72572;46.824;-71.222;2023-09-30T12:19:53;45.53;34.89;19.58
82817;PMS5003;72572;46.824;-71.222;2023-09-30T12:22:17;39.05;35.53;20.05
82817;PMS5003;72572;46.824;-71.222;2023-09-30T12:24:41;41.95;36.21;19.84
82817;PMS5003;72572;46.824;-71.222;2023-09-30T12:27:06;42.35;36;20.55
82817;PMS5003;72572;46.824;-71.222;2023-09-30T12:29:31;40.85;34.45;18.05
82817;PMS5003;72572;46.824;-71.222;2023-09-30T12:31:59;40.67;36.57;19.9
82817;PMS5003;72572;46.824;-71.222;2023-09-30T12:34:24;38.43;34.24;19.33
82817;PMS5003;72572;46.824;-71.222;2023-09-30T12:36:50;51.25;39.95;19.6
82817;PMS5003;72572;46.824;-71.222;2023-09-30T12:39:15;47.42;38.42;21.89
82817;PMS5003;72572;46.824;-71.222;2023-09-30T12:41:41;44.11;35.16;19.05
82817;PMS5003;72572;46.824;-71.222;2023-09-30T12:44:04;48.7;36.15;20.05
82817;PMS5003;72572;46.824;-71.222;2023-09-30T12:46:31;50.05;38.5;20.85
82817;PMS5003;72572;46.824;-71.222;2023-09-30T12:48:54;43.68;36.26;18.95
82817;PMS5003;72572;46.824;-71.222;2023-09-30T12:51:22;46.43;38.81;20.05
82817;PMS5003;72572;46.824;-71.222;2023-09-30T12:53:48;43.7;36;19.5
82817;PMS5003;72572;46.824;-71.222;2023-09-30T12:56:12;47.2;35.15;19.1
82817;PMS5003;72572;46.824;-71.222;2023-09-30T12:58:36;43.11;36.84;20.74
82817;PMS5003;72572;46.824;-71.222;2023-09-30T13:01:01;46.79;39.58;22.47
82817;PMS5003;72572;46.824;-71.222;2023-09-30T13:03:28;37.37;34.42;19.89
82817;PMS5003;72572;46.824;-71.222;2023-09-30T13:05:51;43.85;35.25;18.7
82817;PMS5003;72572;46.824;-71.222;2023-09-30T13:08:17;40.5;34.75;18.45
82817;PMS5003;72572;46.824;-71.222;2023-09-30T13:10:43;45.32;38.05;20.68
82817;PMS5003;72572;46.824;-71.222;2023-09-30T13:13:10;37.17;32.06;18.11
82817;PMS5003;72572;46.824;-71.222;2023-09-30T13:15:36;44.8;37.45;22.15
82817;PMS5003;72572;46.824;-71.222;2023-09-30T13:18:00;52.52;38;20.71
82817;PMS5003;72572;46.824;-71.222;2023-09-30T13:20:24;46.4;37;20.95
82817;PMS5003;72572;46.824;-71.222;2023-09-30T13:22:50;50.55;38;21.5
82817;PMS5003;72572;46.824;-71.222;2023-09-30T13:25:17;45.37;38.95;21.74
82817;PMS5003;72572;46.824;-71.222;2023-09-30T13:27:41;43;34.68;20.32